Hauptseite
METAR-TAF:

METAR-TAF

Flughäfen :

Fliegerhorst Holzdorf

Holzdorf, Deutschland

Breite: 51-46N, Länge: 013-11E, Höhe: 79 m

Beobachtung

Neuester Wetterbericht von vor 43 Minuten, um 07:20 UTC
Wind 3 kt aus Südost
Temperatur 5°C
Luftfeuchtigkeit 100%
Luftdruck 1023 hPa
Sichtweite: 6000 m
Leicht bewölkt in der Höhe von 100 ft

METAR: ETSH 280720Z 13003KT 6000 FEW001 05/05 Q1023 WHT WHT BECMG BLU+

Zeit: 10:03 (08:03 UTC)

Prognose

Neuester Wetterbericht von vor 41 Minuten, um 07:22 UTC
Gültige Prognose vom 28 um 08 UTC bis 28 um 17 UTC
Wind 7 kt aus Südost
Sichtweite 10 km oder mehr
Himmel klar

TAF: ETSH 280722Z 2808/2817 14007KT 9999 NSW SKC

Wetterbeobachtungen und Prognosen von mehr als 4000 Flughäfen (METAR und TAF Bericht).

Die verfügbaren Stationen werden durch gelbe und rote Markierungen auf der Karte dargestellt.

Führen Sie die Maus auf sie, um den Namen der Station zu sehen.

Darauf klicken, um die Beobachtung von Wetterbeobachtungen und Prognosen zu sehen.

Um die Karte zu ändern : klicken Sie auf den grünen Tasten mit einem schwarzen Kreuz Zum Vergrößern, auf den grünen Button mit einem Gedankenstrich zu verkleinern, oder auf die grünen Pfeile für benachbarte Karten.


METAR-TAF: